Time;durP1;ratioP1;P1;durP2;ratioP2;P2;SDS_P1;SDS_P2;PMS_P1;PMS_P2;Temp;Humidity;BMP_temperature;BMP_pressure;BME280_temperature;BME280_humidity;BME280_pressure;Samples;Min_cycle;Max_cycle;Signal;HPM_P1;HPM_P2
2021/12/02 00:00:36;;;;;;;3.30;2.65;;;;;;;;;;143725;645;47020;-59
2021/12/02 00:03:06;;;;;;;4.00;2.87;;;;;;;;;;143724;569;47010;-59
2021/12/02 00:05:33;;;;;;;3.97;3.28;;;;;;;;;;143730;569;45018;-58
2021/12/02 00:08:01;;;;;;;4.22;3.33;;;;;;;;;;143730;585;46010;-59
2021/12/02 00:10:31;;;;;;;3.15;2.85;;;;;;;;;;143727;602;46910;-58
2021/12/02 00:12:58;;;;;;;3.53;2.95;;;;;;;;;;143728;599;47010;-57
2021/12/02 00:15:35;;;;;;;6.62;3.25;;;;;;;;;;143729;691;45018;-59
2021/12/02 00:18:31;;;;;;;2.92;2.62;;;;;;;;;;143730;570;46022;-59
2021/12/02 00:21:05;;;;;;;4.62;2.70;;;;;;;;;;143727;714;46021;-58
2021/12/02 00:23:38;;;;;;;3.65;2.70;;;;;;;;;;143727;656;46028;-59
2021/12/02 00:26:12;;;;;;;3.05;2.53;;;;;;;;;;143728;570;46010;-58
2021/12/02 00:28:40;;;;;;;3.03;2.62;;;;;;;;;;143727;597;46023;-59
2021/12/02 00:31:16;;;;;;;5.00;3.30;;;;;;;;;;143725;696;47018;-58
2021/12/02 00:33:49;;;;;;;4.12;3.00;;;;;;;;;;143725;766;47010;-58
2021/12/02 00:36:17;;;;;;;4.65;3.17;;;;;;;;;;143729;599;45018;-57
2021/12/02 00:38:46;;;;;;;4.25;3.22;;;;;;;;;;143729;667;46010;-58
2021/12/02 00:41:16;;;;;;;3.67;2.70;;;;;;;;;;143725;599;47019;-59
2021/12/02 00:43:44;;;;;;;4.53;2.90;;;;;;;;;;143725;600;46922;-59
2021/12/02 00:46:17;;;;;;;4.53;2.92;;;;;;;;;;143726;585;46018;-59
2021/12/02 00:48:44;;;;;;;7.75;3.00;;;;;;;;;;143731;579;46010;-59
2021/12/02 00:51:12;;;;;;;3.58;2.80;;;;;;;;;;143725;590;47018;-59
2021/12/02 00:53:46;;;;;;;3.60;2.50;;;;;;;;;;143726;565;47010;-59
2021/12/02 00:56:16;;;;;;;4.28;2.87;;;;;;;;;;143729;571;45019;-57
2021/12/02 00:58:47;;;;;;;6.00;3.45;;;;;;;;;;143730;582;46010;-57
2021/12/02 01:01:19;;;;;;;3.08;2.78;;;;;;;;;;143728;620;47018;-59
2021/12/02 01:03:49;;;;;;;6.45;3.55;;;;;;;;;;143726;687;46010;-59
2021/12/02 01:06:15;;;;;;;3.85;2.80;;;;;;;;;;143728;565;45018;-58
2021/12/02 01:08:42;;;;;;;4.05;2.60;;;;;;;;;;143728;579;46022;-58
2021/12/02 01:11:10;;;;;;;3.87;2.80;;;;;;;;;;143724;662;47019;-58
2021/12/02 01:13:37;;;;;;;5.00;3.28;;;;;;;;;;143724;583;47010;-59
2021/12/02 01:16:04;;;;;;;4.87;3.58;;;;;;;;;;143729;723;45027;-58
2021/12/02 01:18:31;;;;;;;4.72;3.33;;;;;;;;;;143729;582;46023;-59
2021/12/02 01:21:00;;;;;;;4.90;3.03;;;;;;;;;;143724;579;47020;-58
2021/12/02 01:23:30;;;;;;;5.20;3.70;;;;;;;;;;143724;564;47022;-58
2021/12/02 01:26:16;;;;;;;3.70;3.05;;;;;;;;;;143727;594;45910;-57
2021/12/02 01:28:44;;;;;;;4.37;3.10;;;;;;;;;;143729;570;46022;-57
2021/12/02 01:31:13;;;;;;;4.60;3.17;;;;;;;;;;143725;597;47018;-57
2021/12/02 01:33:43;;;;;;;6.80;3.30;;;;;;;;;;143725;565;47010;-57
2021/12/02 01:36:11;;;;;;;3.25;2.78;;;;;;;;;;143727;564;45909;-57
2021/12/02 01:38:38;;;;;;;3.90;2.95;;;;;;;;;;143729;601;46036;-57
2021/12/02 01:41:06;;;;;;;10.63;3.87;;;;;;;;;;143724;670;47021;-57
2021/12/02 01:43:51;;;;;;;9.27;3.67;;;;;;;;;;143724;585;47010;-58
2021/12/02 01:46:24;;;;;;;6.35;3.87;;;;;;;;;;143728;591;45020;-58
2021/12/02 01:49:04;;;;;;;5.85;2.95;;;;;;;;;;143729;590;46021;-58
2021/12/02 01:51:36;;;;;;;4.35;3.37;;;;;;;;;;143727;589;47020;-58
2021/12/02 01:54:07;;;;;;;5.68;3.03;;;;;;;;;;143725;566;47010;-58
2021/12/02 01:56:47;;;;;;;3.17;2.65;;;;;;;;;;143728;582;46012;-58
2021/12/02 01:59:20;;;;;;;3.03;2.70;;;;;;;;;;143730;569;46020;-57
2021/12/02 02:01:51;;;;;;;8.32;3.65;;;;;;;;;;143724;594;47021;-58
2021/12/02 02:04:19;;;;;;;8.35;4.70;;;;;;;;;;143724;583;47010;-58
2021/12/02 02:07:00;;;;;;;6.30;3.25;;;;;;;;;;143727;602;45909;-58
2021/12/02 02:09:33;;;;;;;5.45;3.47;;;;;;;;;;143729;680;46021;-59
2021/12/02 02:12:08;;;;;;;4.22;3.25;;;;;;;;;;143726;645;47020;-57
2021/12/02 02:14:35;;;;;;;;;;;;;;;;;;143729;980;47010;-58
2021/12/02 02:17:09;;;;;;;4.75;3.50;;;;;;;;;;143737;595;45021;-58
2021/12/02 02:19:36;;;;;;;3.62;3.00;;;;;;;;;;143727;579;46030;-58
2021/12/02 02:22:05;;;;;;;4.45;3.05;;;;;;;;;;143725;577;47020;-58
2021/12/02 02:24:31;;;;;;;4.85;3.17;;;;;;;;;;143725;597;47010;-58
2021/12/02 02:26:58;;;;;;;5.45;2.90;;;;;;;;;;143731;675;45020;-60
2021/12/02 02:29:25;;;;;;;5.43;3.28;;;;;;;;;;143730;665;46012;-60
2021/12/02 02:31:52;;;;;;;5.62;3.58;;;;;;;;;;143726;569;47022;-58
2021/12/02 02:34:23;;;;;;;4.18;3.05;;;;;;;;;;143726;695;46010;-59
2021/12/02 02:36:52;;;;;;;4.30;2.87;;;;;;;;;;143727;617;46020;-60
2021/12/02 02:39:19;;;;;;;3.15;2.50;;;;;;;;;;143729;707;46020;-59
2021/12/02 02:41:53;;;;;;;3.90;2.97;;;;;;;;;;143724;603;47023;-60
2021/12/02 02:44:21;;;;;;;4.57;2.70;;;;;;;;;;143723;666;47010;-61
2021/12/02 02:46:48;;;;;;;7.62;2.70;;;;;;;;;;143727;591;45909;-60
2021/12/02 02:49:15;;;;;;;2.78;1.77;;;;;;;;;;143728;584;46021;-59
2021/12/02 02:51:44;;;;;;;4.75;2.40;;;;;;;;;;143727;571;47020;-60
2021/12/02 02:54:13;;;;;;;5.57;3.05;;;;;;;;;;143724;593;47011;-58
2021/12/02 02:56:54;;;;;;;5.07;3.03;;;;;;;;;;143728;702;45908;-59
2021/12/02 03:02:33;;;;;;;6.12;3.67;;;;;;;;;;143727;703;46012;-57
2021/12/02 03:05:20;;;;;;;4.37;3.12;;;;;;;;;;143740;652;46917;-59
2021/12/02 03:08:00;;;;;;;9.80;4.70;;;;;;;;;;143743;566;45908;-59
2021/12/02 03:10:48;;;;;;;4.57;3.80;;;;;;;;;;143757;628;45021;-59
2021/12/02 03:13:22;;;;;;;5.18;3.40;;;;;;;;;;143753;660;46020;-58
2021/12/02 03:18:36;;;;;;;5.50;2.35;;;;;;;;;;143757;587;44021;-57
2021/12/02 03:21:16;;;;;;;6.03;3.42;;;;;;;;;;143757;577;45020;-58
2021/12/02 03:23:54;;;;;;;9.63;3.35;;;;;;;;;;143755;641;46021;-58
2021/12/02 03:26:22;;;;;;;3.12;2.62;;;;;;;;;;143755;695;45920;-59
2021/12/02 03:28:50;;;;;;;4.78;3.25;;;;;;;;;;143755;724;45909;-59
2021/12/02 03:31:18;;;;;;;6.57;3.12;;;;;;;;;;143754;659;46013;-59
2021/12/02 03:33:45;;;;;;;6.45;2.87;;;;;;;;;;143755;599;46020;-57
2021/12/02 03:36:14;;;;;;;6.93;3.17;;;;;;;;;;143754;578;45919;-57
2021/12/02 03:38:41;;;;;;;5.62;2.87;;;;;;;;;;143755;715;45020;-58
2021/12/02 03:41:08;;;;;;;5.50;3.42;;;;;;;;;;143756;586;45021;-58
2021/12/02 03:43:37;;;;;;;4.62;3.40;;;;;;;;;;143754;592;46022;-59
2021/12/02 03:46:05;;;;;;;6.53;3.50;;;;;;;;;;143754;636;46010;-57
2021/12/02 03:48:33;;;;;;;6.40;2.95;;;;;;;;;;143755;573;45908;-59
2021/12/02 03:51:00;;;;;;;10.05;3.70;;;;;;;;;;143758;570;45020;-57
2021/12/02 03:53:27;;;;;;;6.55;3.50;;;;;;;;;;143754;637;46021;-59
2021/12/02 03:55:55;;;;;;;4.10;2.87;;;;;;;;;;143754;582;45920;-58
2021/12/02 03:58:22;;;;;;;3.72;2.72;;;;;;;;;;143754;582;45020;-58
2021/12/02 04:00:49;;;;;;;8.25;3.12;;;;;;;;;;143758;601;45020;-57
2021/12/02 04:03:16;;;;;;;5.57;3.40;;;;;;;;;;143750;579;47020;-58
2021/12/02 04:05:43;;;;;;;8.40;3.65;;;;;;;;;;143725;569;46010;-59
2021/12/02 04:08:11;;;;;;;6.72;3.85;;;;;;;;;;143729;569;45021;-59
2021/12/02 04:10:40;;;;;;;7.03;3.85;;;;;;;;;;143729;574;46018;-58
2021/12/02 04:13:30;;;;;;;9.95;3.00;;;;;;;;;;143725;591;47022;-59
2021/12/02 04:16:02;;;;;;;6.93;3.65;;;;;;;;;;143725;619;47010;-58
2021/12/02 04:18:29;;;;;;;11.38;3.80;;;;;;;;;;143726;588;46020;-57
2021/12/02 04:20:56;;;;;;;7.80;3.17;;;;;;;;;;143730;610;46012;-58
2021/12/02 04:23:23;;;;;;;3.70;2.83;;;;;;;;;;143727;591;47020;-58
2021/12/02 04:25:50;;;;;;;4.97;3.05;;;;;;;;;;143726;583;46021;-59
2021/12/02 04:28:17;;;;;;;5.65;2.85;;;;;;;;;;143728;581;46020;-58
2021/12/02 04:30:44;;;;;;;4.50;3.05;;;;;;;;;;143731;583;46013;-58
2021/12/02 04:33:11;;;;;;;9.30;3.10;;;;;;;;;;143725;581;47020;-58
2021/12/02 04:35:39;;;;;;;11.90;3.55;;;;;;;;;;143724;579;47010;-57
2021/12/02 04:38:05;;;;;;;13.43;4.15;;;;;;;;;;143727;583;46020;-59
2021/12/02 04:40:32;;;;;;;7.18;3.22;;;;;;;;;;143730;569;46012;-57
2021/12/02 04:43:00;;;;;;;4.37;2.90;;;;;;;;;;143727;563;47020;-58
2021/12/02 04:45:27;;;;;;;9.63;3.35;;;;;;;;;;143727;610;46011;-57
2021/12/02 04:47:54;;;;;;;5.25;3.08;;;;;;;;;;143728;581;45909;-59
2021/12/02 04:50:21;;;;;;;10.45;3.58;;;;;;;;;;143730;615;46012;-59
2021/12/02 04:52:49;;;;;;;8.27;3.50;;;;;;;;;;143725;632;47022;-58
2021/12/02 04:55:16;;;;;;;5.80;3.30;;;;;;;;;;143723;594;47022;-59
2021/12/02 04:57:43;;;;;;;6.80;3.22;;;;;;;;;;143726;589;46020;-58
2021/12/02 05:00:11;;;;;;;9.48;5.03;;;;;;;;;;143729;728;46013;-59
2021/12/02 05:02:39;;;;;;;8.48;3.33;;;;;;;;;;143724;607;47020;-60
2021/12/02 05:05:07;;;;;;;13.48;3.60;;;;;;;;;;143724;584;47010;-59
2021/12/02 05:07:35;;;;;;;17.40;4.07;;;;;;;;;;143729;595;45021;-60
2021/12/02 05:10:04;;;;;;;8.32;3.70;;;;;;;;;;143730;577;46012;-60
2021/12/02 05:12:31;;;;;;;36.63;12.63;;;;;;;;;;143727;566;47020;-59
2021/12/02 05:14:58;;;;;;;40.67;16.90;;;;;;;;;;143726;577;47010;-60
2021/12/02 05:17:25;;;;;;;72.55;27.83;;;;;;;;;;143729;581;45909;-61
2021/12/02 05:19:52;;;;;;;42.80;18.20;;;;;;;;;;143731;606;46012;-58
2021/12/02 05:22:19;;;;;;;33.72;17.50;;;;;;;;;;143726;591;47021;-59
2021/12/02 05:24:46;;;;;;;19.37;10.43;;;;;;;;;;143726;701;47011;-58
2021/12/02 05:27:14;;;;;;;16.05;9.23;;;;;;;;;;143729;612;45910;-57
2021/12/02 05:29:41;;;;;;;20.20;11.52;;;;;;;;;;143730;580;46020;-59
2021/12/02 05:32:08;;;;;;;30.10;14.95;;;;;;;;;;143726;569;47023;-58
2021/12/02 05:34:35;;;;;;;25.25;15.65;;;;;;;;;;143724;569;47010;-59
2021/12/02 05:37:03;;;;;;;15.90;11.30;;;;;;;;;;143728;569;45020;-59
2021/12/02 05:39:30;;;;;;;17.23;12.00;;;;;;;;;;143731;602;46012;-59
2021/12/02 05:41:57;;;;;;;32.90;19.45;;;;;;;;;;143727;600;47020;-59
2021/12/02 05:44:24;;;;;;;23.73;15.32;;;;;;;;;;143725;581;47011;-59
2021/12/02 05:46:52;;;;;;;27.60;11.93;;;;;;;;;;143729;694;45021;-59
2021/12/02 05:49:19;;;;;;;29.55;12.63;;;;;;;;;;143730;583;46020;-58
2021/12/02 05:51:46;;;;;;;10.45;7.10;;;;;;;;;;143727;658;47020;-59
2021/12/02 05:54:13;;;;;;;13.27;6.45;;;;;;;;;;143726;579;47011;-59
2021/12/02 05:56:40;;;;;;;14.68;5.20;;;;;;;;;;143729;587;45909;-57
2021/12/02 05:59:08;;;;;;;10.82;5.25;;;;;;;;;;143729;606;46020;-59
2021/12/02 06:01:37;;;;;;;16.08;8.80;;;;;;;;;;143727;567;47020;-59
2021/12/02 06:04:04;;;;;;;37.92;22.98;;;;;;;;;;143725;571;47010;-59
2021/12/02 06:06:31;;;;;;;34.78;21.87;;;;;;;;;;143729;617;46020;-59
2021/12/02 06:08:58;;;;;;;42.67;24.20;;;;;;;;;;143730;591;46021;-59
2021/12/02 06:11:25;;;;;;;41.47;25.02;;;;;;;;;;143727;607;47022;-61
2021/12/02 06:13:52;;;;;;;54.85;33.70;;;;;;;;;;143728;595;47010;-60
2021/12/02 06:16:21;;;;;;;43.10;22.80;;;;;;;;;;143731;619;45021;-59
2021/12/02 06:18:47;;;;;;;44.67;18.98;;;;;;;;;;143729;591;46020;-59
2021/12/02 06:21:15;;;;;;;39.92;21.95;;;;;;;;;;143727;568;47022;-59
2021/12/02 06:23:43;;;;;;;34.08;18.02;;;;;;;;;;143727;605;47010;-59
2021/12/02 06:26:10;;;;;;;19.85;14.32;;;;;;;;;;143731;594;45020;-59
2021/12/02 06:28:37;;;;;;;37.35;22.10;;;;;;;;;;143733;624;46020;-60
2021/12/02 06:31:06;;;;;;;73.53;41.78;;;;;;;;;;143728;584;47020;-60
2021/12/02 06:33:36;;;;;;;47.00;30.58;;;;;;;;;;143726;567;47010;-60
2021/12/02 06:36:03;;;;;;;67.90;41.28;;;;;;;;;;143728;597;45020;-58
2021/12/02 06:38:30;;;;;;;54.63;37.05;;;;;;;;;;143732;584;46013;-58
2021/12/02 06:40:57;;;;;;;45.42;25.00;;;;;;;;;;143727;569;47022;-60
2021/12/02 06:43:23;;;;;;;42.70;20.27;;;;;;;;;;143725;605;47011;-60
2021/12/02 06:45:51;;;;;;;41.05;22.40;;;;;;;;;;143731;581;45021;-59
2021/12/02 06:48:17;;;;;;;30.05;14.70;;;;;;;;;;143730;583;45020;-60
2021/12/02 06:50:44;;;;;;;24.92;8.52;;;;;;;;;;143726;662;47022;-61
2021/12/02 06:53:16;;;;;;;24.12;8.23;;;;;;;;;;143725;592;47010;-58
2021/12/02 06:55:43;;;;;;;25.33;7.03;;;;;;;;;;143731;586;45020;-60
2021/12/02 06:58:10;;;;;;;34.08;8.55;;;;;;;;;;143731;606;46012;-59
2021/12/02 07:00:37;;;;;;;33.83;15.35;;;;;;;;;;143727;567;47023;-60
2021/12/02 07:03:04;;;;;;;26.30;12.40;;;;;;;;;;143728;590;47010;-60
2021/12/02 07:05:33;;;;;;;21.90;9.95;;;;;;;;;;143730;587;46014;-59
2021/12/02 07:08:01;;;;;;;30.52;9.95;;;;;;;;;;143732;585;46021;-59
2021/12/02 07:10:31;;;;;;;24.50;9.30;;;;;;;;;;143725;621;47023;-58
2021/12/02 07:12:59;;;;;;;19.08;8.40;;;;;;;;;;143728;600;46010;-58
2021/12/02 07:15:32;;;;;;;19.67;7.75;;;;;;;;;;143725;576;46021;-59
2021/12/02 07:18:00;;;;;;;17.08;11.32;;;;;;;;;;143730;644;46020;-60
2021/12/02 07:20:33;;;;;;;24.17;13.62;;;;;;;;;;143727;617;47020;-60
2021/12/02 07:23:01;;;;;;;18.45;11.23;;;;;;;;;;143726;580;47010;-59
2021/12/02 07:25:28;;;;;;;17.52;9.40;;;;;;;;;;143731;599;45020;-59
2021/12/02 07:27:56;;;;;;;25.42;8.93;;;;;;;;;;143728;566;47020;-59
2021/12/02 07:30:23;;;;;;;25.92;10.20;;;;;;;;;;143728;564;47021;-59
2021/12/02 07:32:58;;;;;;;17.65;8.30;;;;;;;;;;143724;709;47010;-60
2021/12/02 07:35:26;;;;;;;20.75;9.32;;;;;;;;;;143731;571;45020;-60
2021/12/02 07:37:57;;;;;;;23.42;10.85;;;;;;;;;;143731;564;46021;-60
2021/12/02 07:40:26;;;;;;;27.73;9.95;;;;;;;;;;143726;566;47022;-60
2021/12/02 07:42:55;;;;;;;23.12;9.88;;;;;;;;;;143725;633;47010;-59
2021/12/02 07:45:24;;;;;;;21.70;11.32;;;;;;;;;;143731;612;45021;-59
2021/12/02 07:47:51;;;;;;;28.30;12.40;;;;;;;;;;143732;572;46012;-60
2021/12/02 07:50:19;;;;;;;23.92;11.75;;;;;;;;;;143726;599;48020;-60
2021/12/02 07:53:07;;;;;;;23.55;12.98;;;;;;;;;;143727;620;47011;-61
2021/12/02 07:55:40;;;;;;;19.33;12.05;;;;;;;;;;143730;579;46020;-60
2021/12/02 07:58:09;;;;;;;17.77;8.98;;;;;;;;;;143731;626;46020;-61
2021/12/02 08:00:37;;;;;;;17.80;10.32;;;;;;;;;;143730;780;46023;-60
2021/12/02 08:03:08;;;;;;;19.02;11.93;;;;;;;;;;143728;763;47012;-60
2021/12/02 08:05:36;;;;;;;25.00;10.70;;;;;;;;;;143731;614;45020;-60
2021/12/02 08:08:03;;;;;;;20.83;9.32;;;;;;;;;;143731;589;46021;-61
2021/12/02 08:10:31;;;;;;;22.13;9.32;;;;;;;;;;143727;585;47020;-60
2021/12/02 08:12:59;;;;;;;22.45;10.32;;;;;;;;;;143725;629;47010;-61
2021/12/02 08:15:28;;;;;;;17.85;10.63;;;;;;;;;;143729;564;47018;-61
2021/12/02 08:17:57;;;;;;;16.00;9.57;;;;;;;;;;143732;564;46020;-61
2021/12/02 08:20:26;;;;;;;21.15;9.77;;;;;;;;;;143728;690;47020;-61
2021/12/02 08:22:53;;;;;;;22.60;12.65;;;;;;;;;;143729;591;46020;-61
2021/12/02 08:25:22;;;;;;;21.70;10.73;;;;;;;;;;143729;623;45910;-63
2021/12/02 08:27:51;;;;;;;15.45;9.98;;;;;;;;;;143731;563;46020;-62
2021/12/02 08:30:26;;;;;;;16.50;11.10;;;;;;;;;;143726;631;47021;-62
2021/12/02 08:32:55;;;;;;;17.05;9.43;;;;;;;;;;143725;587;47010;-62
2021/12/02 08:35:22;;;;;;;19.45;10.18;;;;;;;;;;143729;592;45020;-62
2021/12/02 08:37:52;;;;;;;18.25;10.27;;;;;;;;;;143731;612;46010;-62
2021/12/02 08:40:34;;;;;;;19.05;9.95;;;;;;;;;;143727;594;47020;-62
2021/12/02 08:43:06;;;;;;;15.77;6.75;;;;;;;;;;143728;581;47010;-63
2021/12/02 08:45:34;;;;;;;12.63;7.97;;;;;;;;;;143727;624;45021;-62
2021/12/02 08:48:02;;;;;;;9.18;5.10;;;;;;;;;;143730;582;46020;-62
2021/12/02 08:50:29;;;;;;;15.43;6.68;;;;;;;;;;143728;581;47020;-60
2021/12/02 08:52:57;;;;;;;13.30;8.25;;;;;;;;;;143728;586;47010;-61
2021/12/02 08:55:25;;;;;;;10.73;8.07;;;;;;;;;;143729;612;46020;-60
2021/12/02 08:57:53;;;;;;;13.00;5.78;;;;;;;;;;143731;579;46020;-60
2021/12/02 09:00:26;;;;;;;16.33;7.97;;;;;;;;;;143727;598;47021;-61
2021/12/02 09:02:54;;;;;;;8.98;6.45;;;;;;;;;;143729;743;46028;-62
2021/12/02 09:05:21;;;;;;;13.15;7.80;;;;;;;;;;143730;611;46020;-62
2021/12/02 09:07:48;;;;;;;14.75;7.18;;;;;;;;;;143732;601;46021;-60
2021/12/02 09:10:16;;;;;;;11.18;7.12;;;;;;;;;;143727;603;47020;-60
2021/12/02 09:12:44;;;;;;;28.70;9.07;;;;;;;;;;143728;569;47011;-62
2021/12/02 09:15:12;;;;;;;11.65;6.05;;;;;;;;;;143730;589;46021;-61
2021/12/02 09:17:39;;;;;;;12.27;6.60;;;;;;;;;;143731;627;46010;-60
2021/12/02 09:20:08;;;;;;;11.43;6.40;;;;;;;;;;143728;626;47020;-61
2021/12/02 09:22:35;;;;;;;10.20;6.37;;;;;;;;;;143726;598;46011;-61
2021/12/02 09:25:02;;;;;;;10.73;6.68;;;;;;;;;;143729;653;46020;-62
2021/12/02 09:27:29;;;;;;;11.02;5.53;;;;;;;;;;143731;573;46020;-62
2021/12/02 09:29:56;;;;;;;8.75;5.65;;;;;;;;;;143726;580;47021;-61
2021/12/02 09:32:23;;;;;;;13.62;4.57;;;;;;;;;;143725;564;47010;-61
2021/12/02 09:34:50;;;;;;;7.32;4.70;;;;;;;;;;143730;622;45909;-61
2021/12/02 09:37:17;;;;;;;7.15;4.50;;;;;;;;;;143731;577;46021;-62
2021/12/02 09:39:45;;;;;;;9.82;4.55;;;;;;;;;;143726;580;47022;-62
2021/12/02 09:42:14;;;;;;;10.70;6.00;;;;;;;;;;143727;600;47010;-60
2021/12/02 09:44:44;;;;;;;8.65;5.25;;;;;;;;;;143729;586;45910;-61
2021/12/02 09:47:11;;;;;;;6.15;4.15;;;;;;;;;;143730;587;46020;-61
2021/12/02 09:49:38;;;;;;;8.80;4.70;;;;;;;;;;143727;572;47020;-60
2021/12/02 09:52:09;;;;;;;11.55;5.03;;;;;;;;;;143727;599;47010;-61
2021/12/02 09:54:40;;;;;;;11.80;5.35;;;;;;;;;;143726;569;45909;-60
2021/12/02 09:57:11;;;;;;;8.20;3.65;;;;;;;;;;143732;572;46010;-61
2021/12/02 10:02:24;;;;;;;8.48;3.90;;;;;;;;;;143727;629;46027;-61
2021/12/02 10:04:56;;;;;;;8.73;3.92;;;;;;;;;;143729;627;45034;-61
2021/12/02 10:07:37;;;;;;;5.65;3.20;;;;;;;;;;143731;608;46021;-61
2021/12/02 10:10:27;;;;;;;3.72;2.12;;;;;;;;;;143728;586;47020;-61
2021/12/02 10:13:29;;;;;;;5.20;3.28;;;;;;;;;;143727;586;47010;-60
2021/12/02 10:16:31;;;;;;;18.80;11.82;;;;;;;;;;143731;564;45022;-61
2021/12/02 10:19:10;;;;;;;13.57;6.82;;;;;;;;;;143732;631;46020;-61
2021/12/02 10:21:44;;;;;;;16.23;9.45;;;;;;;;;;143730;589;47021;-60
2021/12/02 10:24:18;;;;;;;15.90;9.95;;;;;;;;;;143726;564;47010;-61
2021/12/02 10:26:57;;;;;;;9.85;5.45;;;;;;;;;;143729;569;46020;-61
2021/12/02 10:29:34;;;;;;;12.05;7.50;;;;;;;;;;143731;593;46021;-60
2021/12/02 10:32:19;;;;;;;8.95;4.53;;;;;;;;;;143726;625;47020;-60
2021/12/02 10:35:06;;;;;;;9.55;3.45;;;;;;;;;;143727;613;47010;-57
2021/12/02 10:37:36;;;;;;;6.22;2.90;;;;;;;;;;143729;590;46023;-56
2021/12/02 10:40:12;;;;;;;9.18;4.53;;;;;;;;;;143729;601;46020;-57
2021/12/02 10:42:43;;;;;;;4.50;3.00;;;;;;;;;;143725;566;47021;-57
2021/12/02 10:45:24;;;;;;;4.80;3.42;;;;;;;;;;143724;576;47010;-57
2021/12/02 10:47:55;;;;;;;9.13;4.68;;;;;;;;;;143725;592;46020;-57
2021/12/02 10:50:23;;;;;;;9.20;4.32;;;;;;;;;;143726;574;46039;-59
2021/12/02 10:52:51;;;;;;;10.00;7.65;;;;;;;;;;143726;564;47018;-58
2021/12/02 10:55:22;;;;;;;16.92;10.95;;;;;;;;;;143724;605;47010;-58
2021/12/02 10:57:57;;;;;;;28.55;20.33;;;;;;;;;;143727;658;46018;-58
2021/12/02 11:00:40;;;;;;;16.00;9.70;;;;;;;;;;143728;589;47010;-58
2021/12/02 11:03:10;;;;;;;16.83;9.45;;;;;;;;;;143723;569;47018;-57
2021/12/02 11:05:47;;;;;;;11.73;7.30;;;;;;;;;;143725;612;47011;-57
2021/12/02 11:08:16;;;;;;;10.32;5.80;;;;;;;;;;143729;574;45018;-57
2021/12/02 11:10:49;;;;;;;15.23;8.82;;;;;;;;;;143729;634;46021;-57
2021/12/02 11:13:33;;;;;;;12.27;6.65;;;;;;;;;;143725;595;47019;-57
2021/12/02 11:16:00;;;;;;;30.70;21.37;;;;;;;;;;143725;578;47010;-58
2021/12/02 11:18:28;;;;;;;36.80;24.25;;;;;;;;;;143728;610;45907;-56
2021/12/02 11:20:59;;;;;;;16.33;9.35;;;;;;;;;;143727;638;46022;-56
2021/12/02 11:23:36;;;;;;;28.65;17.55;;;;;;;;;;143725;633;47018;-56
2021/12/02 11:26:11;;;;;;;20.10;12.18;;;;;;;;;;143725;563;47010;-57
2021/12/02 11:28:43;;;;;;;12.90;8.18;;;;;;;;;;143729;564;45019;-56
2021/12/02 11:31:28;;;;;;;13.00;7.93;;;;;;;;;;143729;569;46010;-56
2021/12/02 11:33:56;;;;;;;14.05;8.50;;;;;;;;;;143724;597;47020;-56
2021/12/02 11:36:28;;;;;;;13.48;9.13;;;;;;;;;;143726;575;47010;-56
2021/12/02 11:38:58;;;;;;;8.95;6.28;;;;;;;;;;143728;612;45018;-56
2021/12/02 11:41:26;;;;;;;15.15;10.45;;;;;;;;;;143730;584;46010;-56
2021/12/02 11:43:54;;;;;;;14.25;8.30;;;;;;;;;;143726;619;47018;-56
2021/12/02 11:46:21;;;;;;;15.15;7.62;;;;;;;;;;143726;666;47010;-55
2021/12/02 11:48:48;;;;;;;13.65;7.82;;;;;;;;;;143728;632;45018;-56
2021/12/02 11:51:18;;;;;;;9.10;5.87;;;;;;;;;;143729;571;46010;-56
2021/12/02 11:53:46;;;;;;;12.23;7.12;;;;;;;;;;143724;580;47018;-56
2021/12/02 11:56:21;;;;;;;15.52;7.47;;;;;;;;;;143726;601;46010;-56
2021/12/02 11:58:49;;;;;;;25.10;9.98;;;;;;;;;;143729;569;45019;-55
2021/12/02 12:01:20;;;;;;;14.32;6.80;;;;;;;;;;143729;625;46022;-56
2021/12/02 12:04:07;;;;;;;14.20;6.80;;;;;;;;;;143724;622;47020;-55
2021/12/02 12:06:36;;;;;;;16.35;6.30;;;;;;;;;;143724;566;47010;-56
2021/12/02 12:09:12;;;;;;;10.88;5.30;;;;;;;;;;143728;600;45906;-55
2021/12/02 12:11:51;;;;;;;28.40;10.48;;;;;;;;;;143730;866;46022;-56
2021/12/02 12:14:37;;;;;;;37.55;14.73;;;;;;;;;;143724;853;47021;-56
2021/12/02 12:17:23;;;;;;;28.35;9.20;;;;;;;;;;143727;593;47010;-55
2021/12/02 12:19:50;;;;;;;23.83;8.43;;;;;;;;;;143728;564;45020;-55
2021/12/02 12:22:33;;;;;;;27.60;8.60;;;;;;;;;;143729;763;46023;-55
2021/12/02 12:25:06;;;;;;;21.73;7.03;;;;;;;;;;143724;689;47018;-55
2021/12/02 12:27:37;;;;;;;24.12;9.70;;;;;;;;;;143725;616;47011;-55
2021/12/02 12:30:24;;;;;;;33.35;10.40;;;;;;;;;;143726;627;46012;-55
2021/12/02 12:38:34;;;;;;;20.92;6.85;;;;;;;;;;143727;575;45922;-55
2021/12/02 12:41:11;;;;;;;32.47;8.85;;;;;;;;;;143728;568;45018;-55
2021/12/02 12:43:53;;;;;;;15.00;6.07;;;;;;;;;;143729;579;46023;-54
2021/12/02 12:46:25;;;;;;;20.02;8.70;;;;;;;;;;143725;617;47020;-55
2021/12/02 12:48:55;;;;;;;21.48;8.60;;;;;;;;;;143726;589;47010;-55
2021/12/02 12:51:28;;;;;;;10.13;5.07;;;;;;;;;;143728;599;45019;-55
2021/12/02 12:53:56;;;;;;;15.95;6.15;;;;;;;;;;143729;566;46010;-55
2021/12/02 12:56:38;;;;;;;16.33;6.40;;;;;;;;;;143725;565;47020;-55
2021/12/02 12:59:17;;;;;;;8.15;4.28;;;;;;;;;;143725;672;47010;-55
2021/12/02 13:02:01;;;;;;;25.85;14.27;;;;;;;;;;143728;569;45018;-55
2021/12/02 13:04:30;;;;;;;40.45;25.10;;;;;;;;;;143730;564;46011;-55
2021/12/02 13:07:13;;;;;;;24.55;14.68;;;;;;;;;;143726;620;47018;-55
2021/12/02 13:09:58;;;;;;;18.02;11.32;;;;;;;;;;143724;606;47010;-55
2021/12/02 13:12:48;;;;;;;18.87;11.02;;;;;;;;;;143729;569;45019;-55
2021/12/02 13:15:28;;;;;;;17.05;6.85;;;;;;;;;;143730;570;46022;-56
2021/12/02 13:17:57;;;;;;;18.58;9.32;;;;;;;;;;143725;585;47020;-55
2021/12/02 13:20:35;;;;;;;17.80;10.75;;;;;;;;;;143724;565;47010;-55
2021/12/02 13:23:27;;;;;;;17.75;8.48;;;;;;;;;;143726;596;45018;-55
2021/12/02 13:26:00;;;;;;;9.85;6.30;;;;;;;;;;143729;603;46012;-56
2021/12/02 13:28:33;;;;;;;10.00;5.57;;;;;;;;;;143726;574;47021;-56
2021/12/02 13:31:12;;;;;;;9.82;6.30;;;;;;;;;;143725;634;47010;-55
2021/12/02 13:34:00;;;;;;;15.40;7.15;;;;;;;;;;143729;600;45018;-55
2021/12/02 13:36:48;;;;;;;7.03;4.43;;;;;;;;;;143730;590;46010;-55
2021/12/02 13:39:35;;;;;;;6.05;4.18;;;;;;;;;;143725;612;47025;-55
2021/12/02 13:42:08;;;;;;;8.15;4.57;;;;;;;;;;143725;577;47010;-55
2021/12/02 13:44:54;;;;;;;11.77;6.30;;;;;;;;;;143725;598;46019;-56
2021/12/02 13:47:41;;;;;;;10.20;5.20;;;;;;;;;;143729;602;46012;-56
2021/12/02 13:50:13;;;;;;;18.62;12.15;;;;;;;;;;143725;564;47019;-55
2021/12/02 13:52:58;;;;;;;30.00;19.37;;;;;;;;;;143726;567;47010;-55
2021/12/02 13:55:30;;;;;;;29.25;18.83;;;;;;;;;;143724;569;47010;-56
2021/12/02 13:58:06;;;;;;;14.80;9.80;;;;;;;;;;143729;573;46010;-55
2021/12/02 14:00:39;;;;;;;26.40;13.88;;;;;;;;;;143724;569;47018;-55
2021/12/02 14:03:16;;;;;;;11.20;6.28;;;;;;;;;;143724;606;47010;-55
2021/12/02 14:05:55;;;;;;;24.98;16.02;;;;;;;;;;143728;571;45019;-55
2021/12/02 14:08:27;;;;;;;14.35;7.50;;;;;;;;;;143729;624;46022;-55
2021/12/02 14:10:55;;;;;;;14.10;8.07;;;;;;;;;;143724;650;47020;-55
2021/12/02 14:13:25;;;;;;;24.40;15.32;;;;;;;;;;143724;590;47010;-55
2021/12/02 14:16:00;;;;;;;15.65;10.65;;;;;;;;;;143726;565;45907;-55
2021/12/02 14:18:29;;;;;;;13.02;8.57;;;;;;;;;;143729;580;46011;-55
2021/12/02 14:21:02;;;;;;;16.52;11.18;;;;;;;;;;143725;574;47037;-55
2021/12/02 14:23:49;;;;;;;10.95;7.43;;;;;;;;;;143726;594;46024;-55
2021/12/02 14:26:20;;;;;;;14.02;7.32;;;;;;;;;;143727;567;46020;-55
2021/12/02 14:28:49;;;;;;;11.43;7.03;;;;;;;;;;143730;621;46010;-55
2021/12/02 14:31:51;;;;;;;17.65;8.43;;;;;;;;;;143725;565;47020;-55
2021/12/02 14:34:18;;;;;;;12.68;6.60;;;;;;;;;;143725;593;47023;-55
2021/12/02 14:36:48;;;;;;;11.38;6.45;;;;;;;;;;143727;566;45906;-55
2021/12/02 14:39:21;;;;;;;13.62;5.72;;;;;;;;;;143730;571;46010;-55
2021/12/02 14:41:49;;;;;;;15.50;7.82;;;;;;;;;;143723;601;47019;-55
2021/12/02 14:44:19;;;;;;;8.85;5.87;;;;;;;;;;143725;585;47010;-55
2021/12/02 14:46:51;;;;;;;13.40;6.18;;;;;;;;;;143728;609;45018;-55
2021/12/02 14:49:29;;;;;;;11.65;6.45;;;;;;;;;;143725;631;46023;-55
2021/12/02 14:52:08;;;;;;;11.88;5.50;;;;;;;;;;143726;572;47018;-55
2021/12/02 14:54:51;;;;;;;9.80;5.57;;;;;;;;;;143724;690;47010;-55
2021/12/02 14:57:24;;;;;;;14.30;6.28;;;;;;;;;;143728;590;45908;-55
2021/12/02 14:59:59;;;;;;;14.02;5.70;;;;;;;;;;143731;582;46010;-56
2021/12/02 15:02:38;;;;;;;9.27;6.10;;;;;;;;;;143725;622;47037;-54
2021/12/02 15:05:15;;;;;;;10.80;5.93;;;;;;;;;;143717;570;47010;-54
2021/12/02 15:07:53;;;;;;;12.30;5.82;;;;;;;;;;143726;623;45906;-54
2021/12/02 15:10:28;;;;;;;10.80;6.20;;;;;;;;;;143730;588;46022;-55
2021/12/02 15:13:17;;;;;;;10.35;6.07;;;;;;;;;;143725;565;47021;-55